createdAt,value
2018-08-13T00:02:41.233Z,99645.50
2018-08-13T00:07:45.316Z,99637.89
2018-08-13T00:12:48.781Z,99638.34
2018-08-13T00:17:52.333Z,99636.54
2018-08-13T00:22:55.987Z,99637.61
2018-08-13T00:28:00.217Z,99629.03
2018-08-13T00:33:03.735Z,99625.50
2018-08-13T00:38:07.365Z,99616.88
2018-08-13T00:43:10.848Z,99616.61
2018-08-13T00:48:14.309Z,99615.53
2018-08-13T00:53:17.882Z,99606.06
2018-08-13T00:58:21.353Z,99608.77
2018-08-13T01:03:24.823Z,99602.26
2018-08-13T01:08:28.416Z,99594.14
2018-08-13T01:13:31.974Z,99592.80
2018-08-13T01:18:35.494Z,99589.50
2018-08-13T01:23:39.129Z,99582.20
2018-08-13T01:28:42.686Z,99573.27
2018-08-13T01:33:46.255Z,99556.47
2018-08-13T01:38:49.808Z,99562.84
2018-08-13T01:43:53.329Z,99564.09
2018-08-13T01:48:56.829Z,99557.84
2018-08-13T01:54:00.418Z,99562.69
2018-08-13T01:59:03.947Z,99560.66
2018-08-13T02:04:07.490Z,99563.62
2018-08-13T02:09:12.292Z,99561.19
2018-08-13T02:14:15.786Z,99557.83
2018-08-13T02:19:19.625Z,99549.94
2018-08-13T02:24:23.150Z,99549.98
2018-08-13T02:29:27.388Z,99554.55
2018-08-13T02:34:30.881Z,99552.56
2018-08-13T02:39:34.427Z,99541.77
2018-08-13T02:44:38.310Z,99543.23
2018-08-13T02:49:41.833Z,99531.56
2018-08-13T02:54:45.331Z,99528.87
2018-08-13T02:59:48.810Z,99522.51
2018-08-13T03:04:53.210Z,99523.15
2018-08-13T03:09:56.754Z,99528.89
2018-08-13T03:15:00.327Z,99521.61
2018-08-13T03:20:03.981Z,99513.70
2018-08-13T03:25:09.469Z,99501.81
2018-08-13T03:30:13.861Z,99504.76
2018-08-13T03:35:17.425Z,99512.49
2018-08-13T03:40:20.918Z,99503.02
2018-08-13T03:45:24.402Z,99504.65
2018-08-13T03:50:27.916Z,99502.50
2018-08-13T03:55:31.490Z,99500.81
2018-08-13T04:00:35.031Z,99504.56
2018-08-13T04:05:38.517Z,99497.91
2018-08-13T04:10:42.082Z,99496.78
2018-08-13T04:15:45.590Z,99501.88
2018-08-13T04:20:49.073Z,99503.50
2018-08-13T04:25:53.276Z,99492.83
2018-08-13T04:30:56.820Z,99491.97
2018-08-13T04:36:00.363Z,99495.98
2018-08-13T04:41:03.893Z,99496.36
2018-08-13T04:46:07.669Z,99494.73
2018-08-13T04:51:11.194Z,99499.11
2018-08-13T04:56:14.746Z,99497.81
2018-08-13T05:01:18.264Z,99501.95
2018-08-13T05:06:21.838Z,99505.30
2018-08-13T05:11:25.401Z,99504.86
2018-08-13T05:16:35.513Z,99507.83
2018-08-13T05:21:39.097Z,99507.47
2018-08-13T05:26:42.721Z,99507.06
2018-08-13T05:31:46.409Z,99496.91
2018-08-13T05:36:49.929Z,99490.80
2018-08-13T05:41:53.453Z,99493.83
2018-08-13T05:46:56.965Z,99492.23
2018-08-13T05:52:00.488Z,99493.16
2018-08-13T05:57:03.994Z,99489.17
2018-08-13T06:02:07.484Z,99497.03
2018-08-13T06:07:11.036Z,99494.38
2018-08-13T06:12:14.665Z,99493.60
2018-08-13T06:17:18.169Z,99488.52
2018-08-13T06:22:21.715Z,99485.56
2018-08-13T06:27:25.178Z,99489.34
2018-08-13T06:32:28.752Z,99480.20
2018-08-13T06:37:32.380Z,99482.37
2018-08-13T06:42:35.881Z,99476.42
2018-08-13T06:47:40.264Z,99473.42
2018-08-13T06:52:44.047Z,99466.38
2018-08-13T06:57:47.628Z,99461.53
2018-08-13T07:02:51.164Z,99464.98
2018-08-13T07:07:54.634Z,99451.17
2018-08-13T07:12:58.150Z,99455.42
2018-08-13T07:18:01.643Z,99449.66
2018-08-13T07:23:05.124Z,99456.05
2018-08-13T07:28:08.776Z,99450.05
2018-08-13T07:33:12.261Z,99441.95
2018-08-13T07:38:15.768Z,99448.27
2018-08-13T07:43:19.244Z,99443.88
2018-08-13T07:48:22.861Z,99441.92
2018-08-13T07:53:26.330Z,99435.77
2018-08-13T07:58:29.854Z,99425.59
2018-08-13T08:03:33.496Z,99423.22
2018-08-13T08:08:37.009Z,99421.61
2018-08-13T08:13:40.501Z,99421.92
2018-08-13T08:18:44.026Z,99422.78
2018-08-13T08:23:47.520Z,99416.59
2018-08-13T08:28:51.103Z,99398.44
2018-08-13T08:33:54.620Z,99403.77
2018-08-13T08:38:58.166Z,99396.67
2018-08-13T08:44:01.732Z,99398.71
2018-08-13T08:49:05.234Z,99398.52
2018-08-13T08:54:10.167Z,99396.97
2018-08-13T08:59:13.673Z,99395.12
2018-08-13T09:04:17.254Z,99396.27
2018-08-13T09:09:20.871Z,99403.49
2018-08-13T09:14:24.333Z,99391.37
2018-08-13T09:19:38.904Z,99387.33
2018-08-13T09:24:53.714Z,99381.72
2018-08-13T09:32:10.111Z,99379.08
2018-08-13T09:37:13.623Z,99369.61
2018-08-13T09:42:17.137Z,99373.25
2018-08-13T09:47:20.566Z,99364.91
2018-08-13T09:52:24.093Z,99361.61
2018-08-13T09:57:27.651Z,99353.87
2018-08-13T10:02:31.265Z,99347.97
2018-08-13T10:07:34.770Z,99339.94
2018-08-13T10:12:38.251Z,99338.66
2018-08-13T10:17:41.839Z,99337.80
2018-08-13T10:22:45.471Z,99336.61
2018-08-13T10:27:48.943Z,99339.92
2018-08-13T10:32:52.558Z,99344.87
2018-08-13T10:37:56.090Z,99339.68
2018-08-13T10:42:59.826Z,99336.41
2018-08-13T10:48:03.322Z,99342.71
2018-08-13T10:53:06.897Z,99350.86
2018-08-13T10:58:10.417Z,99333.37
2018-08-13T11:03:13.881Z,99330.77
2018-08-13T11:08:17.411Z,99330.53
2018-08-13T11:13:21.087Z,99320.92
2018-08-13T11:18:24.585Z,99318.68
2018-08-13T11:23:28.105Z,99325.17
2018-08-13T11:28:31.586Z,99311.77
2018-08-13T11:33:35.043Z,99314.48
2018-08-13T11:38:38.577Z,99314.56
2018-08-13T11:43:42.094Z,99289.61
2018-08-13T11:48:45.621Z,99297.90
2018-08-13T11:53:49.118Z,99289.55
2018-08-13T11:58:52.726Z,99279.87
2018-08-13T12:03:56.223Z,99275.66
2018-08-13T12:08:59.746Z,99285.90
2018-08-13T12:14:03.359Z,99299.80
2018-08-13T12:19:07.122Z,99296.43
2018-08-13T12:24:10.680Z,99326.89
2018-08-13T12:29:14.209Z,99343.63
2018-08-13T12:34:17.722Z,99347.61
2018-08-13T12:39:21.167Z,99365.91
2018-08-13T12:44:24.753Z,99351.85
2018-08-13T12:49:28.344Z,99346.24
2018-08-13T12:54:31.884Z,99355.55
2018-08-13T12:59:35.418Z,99346.37
2018-08-13T13:04:38.913Z,99364.77
2018-08-13T13:09:42.414Z,99370.73
2018-08-13T13:14:45.917Z,99376.72
2018-08-13T13:19:49.389Z,99379.99
2018-08-13T13:24:52.941Z,99392.23
2018-08-13T13:29:56.386Z,99393.72
2018-08-13T13:34:59.918Z,99403.40
2018-08-13T13:40:03.981Z,99430.08
2018-08-13T13:45:08.844Z,99427.77
2018-08-13T13:50:14.705Z,99450.69
2018-08-13T13:55:18.318Z,99441.14
2018-08-13T14:00:22.496Z,99443.03
2018-08-13T14:05:25.955Z,99439.83
2018-08-13T14:10:29.472Z,99438.63
2018-08-13T14:15:32.980Z,99437.67
2018-08-13T14:20:36.593Z,99431.77
2018-08-13T14:25:40.197Z,99445.30
2018-08-13T14:30:43.785Z,99470.45
2018-08-13T14:35:47.722Z,99468.78
2018-08-13T14:40:51.667Z,99472.11
2018-08-13T14:45:55.200Z,99457.23
2018-08-13T14:50:58.764Z,99453.28
2018-08-13T14:56:02.325Z,99442.79
2018-08-13T15:01:05.809Z,99425.71
2018-08-13T15:06:09.272Z,99423.98
2018-08-13T15:11:12.907Z,99410.08
2018-08-13T15:16:16.679Z,99404.17
2018-08-13T15:21:20.518Z,99354.05
2018-08-13T15:26:24.222Z,99375.59
2018-08-13T15:31:27.747Z,99393.89
2018-08-13T15:36:31.385Z,99411.98
2018-08-13T15:41:34.935Z,99405.39
2018-08-13T15:46:38.377Z,99386.04
2018-08-13T15:51:41.908Z,99379.92
2018-08-13T15:56:45.672Z,99387.31
2018-08-13T16:01:49.423Z,99377.45
2018-08-13T16:06:53.060Z,99373.94
2018-08-13T16:11:56.607Z,99369.08
2018-08-13T16:17:00.246Z,99356.05
2018-08-13T16:22:03.982Z,99355.42
2018-08-13T16:27:07.534Z,99360.23
2018-08-13T16:32:11.165Z,99353.47
2018-08-13T16:37:16.503Z,99352.09
2018-08-13T16:42:22.573Z,99358.08
2018-08-13T16:47:27.552Z,99359.52
2018-08-13T16:52:32.094Z,99345.59
2018-08-13T16:57:37.395Z,99363.22
2018-08-13T17:02:41.376Z,99360.75
2018-08-13T17:07:45.297Z,99366.52
2018-08-13T17:12:50.523Z,99371.45
2018-08-13T17:17:56.871Z,99369.81
2018-08-13T17:23:02.034Z,99375.55
2018-08-13T17:28:07.040Z,99380.45
2018-08-13T17:33:12.458Z,99388.12
2018-08-13T17:38:17.258Z,99388.12
2018-08-13T17:43:22.003Z,99404.04
2018-08-13T17:48:26.157Z,99407.53
2018-08-13T17:53:30.796Z,99423.01
2018-08-13T17:58:35.343Z,99419.49
2018-08-13T18:03:39.700Z,99425.42
2018-08-13T18:08:44.447Z,99423.09
2018-08-13T18:13:49.810Z,99417.36
2018-08-13T18:18:54.526Z,99416.94
2018-08-13T18:23:59.220Z,99418.25
2018-08-13T18:29:03.901Z,99414.26
2018-08-13T18:34:08.728Z,99406.57
2018-08-13T18:39:12.189Z,99401.97
2018-08-13T18:44:16.110Z,99395.68
2018-08-13T18:49:20.479Z,99401.55
2018-08-13T18:54:23.989Z,99402.72
2018-08-13T18:59:27.488Z,99399.81
2018-08-13T19:04:31.014Z,99408.56
2018-08-13T19:09:34.542Z,99415.41
2018-08-13T19:14:38.006Z,99411.53
2018-08-13T19:19:41.525Z,99422.23
2018-08-13T19:24:45.094Z,99423.63
2018-08-13T19:29:48.594Z,99420.52
2018-08-13T19:34:52.224Z,99424.47
2018-08-13T19:39:55.737Z,99412.95
2018-08-13T19:44:59.233Z,99418.38
2018-08-13T19:50:03.359Z,99423.58
2018-08-13T19:55:08.338Z,99424.59
2018-08-13T20:00:17.679Z,99421.96
2018-08-13T20:05:22.692Z,99425.94
2018-08-13T20:20:31.370Z,99429.77
2018-08-13T20:25:34.948Z,99433.03
2018-08-13T20:30:38.644Z,99438.70
2018-08-13T20:35:42.367Z,99426.56
2018-08-13T20:40:45.870Z,99426.05
2018-08-13T20:45:49.319Z,99429.63
2018-08-13T20:50:52.943Z,99435.01
2018-08-13T20:55:56.461Z,99437.72
2018-08-13T21:01:00.150Z,99441.00
2018-08-13T21:06:03.721Z,99441.26
2018-08-13T21:11:07.278Z,99438.55
2018-08-13T21:16:10.798Z,99446.09
2018-08-13T21:21:14.400Z,99455.59
2018-08-13T21:26:18.010Z,99460.77
2018-08-13T21:31:21.662Z,99455.97
2018-08-13T21:36:25.219Z,99459.19
2018-08-13T21:41:28.769Z,99436.53
2018-08-13T21:46:32.336Z,99441.62
2018-08-13T21:51:35.958Z,99443.22
2018-08-13T21:56:39.590Z,99457.00
2018-08-13T22:01:47.083Z,99455.97
2018-08-13T22:06:50.599Z,99453.01
2018-08-13T22:11:54.135Z,99460.86
2018-08-13T22:16:57.657Z,99456.58
2018-08-13T22:22:01.248Z,99464.14
2018-08-13T22:27:04.824Z,99469.29
2018-08-13T22:32:08.399Z,99470.09
2018-08-13T22:37:12.068Z,99463.91
2018-08-13T22:42:15.554Z,99463.96
2018-08-13T22:47:18.993Z,99465.03
2018-08-13T22:52:22.549Z,99458.53
2018-08-13T22:57:26.138Z,99458.81
2018-08-13T23:02:29.757Z,99459.91
2018-08-13T23:07:33.340Z,99450.70
2018-08-13T23:12:37.328Z,99460.48
2018-08-13T23:17:41.589Z,99456.67
2018-08-13T23:22:48.779Z,99451.05
2018-08-13T23:27:53.749Z,99449.99
2018-08-13T23:32:58.164Z,99442.72
2018-08-13T23:38:01.769Z,99448.38
2018-08-13T23:43:05.278Z,99436.52
2018-08-13T23:48:08.920Z,99443.27
2018-08-13T23:53:12.463Z,99445.70
2018-08-13T23:58:15.985Z,99444.64
